sensor_id;sensor_type;location;lat;lon;timestamp;pressure;altitude;pressure_sealevel;temperature;humidity
68859;BME280;55864;49.238;8.092;2023-07-20T00:01:17;99197.41;;;21.23;46.95
68859;BME280;55864;49.238;8.092;2023-07-20T00:03:17;99196.53;;;21.29;46.10
68859;BME280;55864;49.238;8.092;2023-07-20T00:05:18;99192.72;;;21.43;46.71
68859;BME280;55864;49.238;8.092;2023-07-20T00:07:19;99193.31;;;21.45;46.17
68859;BME280;55864;49.238;8.092;2023-07-20T00:09:19;99197.22;;;21.42;45.98
68859;BME280;55864;49.238;8.092;2023-07-20T00:11:20;99201.88;;;21.29;46.45
68859;BME280;55864;49.238;8.092;2023-07-20T00:13:20;99207.00;;;21.30;46.58
68859;BME280;55864;49.238;8.092;2023-07-20T00:15:21;99204.44;;;21.17;46.74
68859;BME280;55864;49.238;8.092;2023-07-20T00:17:23;99205.28;;;21.11;46.83
68859;BME280;55864;49.238;8.092;2023-07-20T00:19:26;99203.63;;;21.10;46.92
68859;BME280;55864;49.238;8.092;2023-07-20T00:21:27;99202.38;;;21.19;46.38
68859;BME280;55864;49.238;8.092;2023-07-20T00:23:28;99205.13;;;21.06;47.63
68859;BME280;55864;49.238;8.092;2023-07-20T00:25:28;99199.72;;;21.13;46.95
68859;BME280;55864;49.238;8.092;2023-07-20T00:27:29;99205.28;;;21.11;48.14
68859;BME280;55864;49.238;8.092;2023-07-20T00:29:29;99210.03;;;21.09;47.14
68859;BME280;55864;49.238;8.092;2023-07-20T00:31:30;99204.47;;;21.11;46.83
68859;BME280;55864;49.238;8.092;2023-07-20T00:33:32;99210.03;;;21.09;47.67
68859;BME280;55864;49.238;8.092;2023-07-20T00:35:33;99207.81;;;21.06;47.13
68859;BME280;55864;49.238;8.092;2023-07-20T00:37:34;99211.41;;;21.18;48.06
68859;BME280;55864;49.238;8.092;2023-07-20T00:39:34;99201.44;;;21.32;46.69
68859;BME280;55864;49.238;8.092;2023-07-20T00:41:35;99202.44;;;21.37;46.41
68859;BME280;55864;49.238;8.092;2023-07-20T00:43:36;99203.25;;;21.38;47.85
68859;BME280;55864;49.238;8.092;2023-07-20T00:45:38;99203.41;;;21.43;47.00
68859;BME280;55864;49.238;8.092;2023-07-20T00:47:38;99201.97;;;21.40;46.38
68859;BME280;55864;49.238;8.092;2023-07-20T00:49:40;99197.31;;;21.36;46.74
68859;BME280;55864;49.238;8.092;2023-07-20T00:51:41;99197.94;;;21.31;47.41
68859;BME280;55864;49.238;8.092;2023-07-20T00:53:43;99198.22;;;21.23;48.68
68859;BME280;55864;49.238;8.092;2023-07-20T00:55:43;99196.84;;;21.39;47.52
68859;BME280;55864;49.238;8.092;2023-07-20T00:57:44;99195.97;;;21.20;47.47
68859;BME280;55864;49.238;8.092;2023-07-20T00:59:45;99196.59;;;21.16;48.16
68859;BME280;55864;49.238;8.092;2023-07-20T01:01:45;99200.78;;;21.12;48.87
68859;BME280;55864;49.238;8.092;2023-07-20T01:03:46;99197.13;;;21.06;48.43
68859;BME280;55864;49.238;8.092;2023-07-20T01:05:51;99197.69;;;21.08;47.96
68859;BME280;55864;49.238;8.092;2023-07-20T01:07:59;99198.75;;;21.07;48.08
68859;BME280;55864;49.238;8.092;2023-07-20T01:10:10;99197.97;;;21.00;49.70
68859;BME280;55864;49.238;8.092;2023-07-20T01:12:13;99199.78;;;21.06;49.67
68859;BME280;55864;49.238;8.092;2023-07-20T01:14:19;99202.16;;;21.21;48.94
68859;BME280;55864;49.238;8.092;2023-07-20T01:16:20;99209.22;;;21.33;47.72
68859;BME280;55864;49.238;8.092;2023-07-20T01:18:21;99208.81;;;21.36;48.45
68859;BME280;55864;49.238;8.092;2023-07-20T01:20:22;99202.28;;;21.32;48.38
68859;BME280;55864;49.238;8.092;2023-07-20T01:22:46;99203.50;;;21.30;47.58
68859;BME280;55864;49.238;8.092;2023-07-20T01:25:00;99198.00;;;21.25;47.52
68859;BME280;55864;49.238;8.092;2023-07-20T01:27:27;99201.06;;;21.28;47.82
68859;BME280;55864;49.238;8.092;2023-07-20T01:29:46;99198.88;;;21.19;47.83
68859;BME280;55864;49.238;8.092;2023-07-20T01:31:52;99194.66;;;20.98;48.65
68859;BME280;55864;49.238;8.092;2023-07-20T01:33:56;99187.06;;;21.02;48.86
68859;BME280;55864;49.238;8.092;2023-07-20T01:35:58;99192.03;;;20.92;48.93
68859;BME280;55864;49.238;8.092;2023-07-20T01:38:00;99197.97;;;21.00;48.78
68859;BME280;55864;49.238;8.092;2023-07-20T01:40:02;99187.66;;;20.97;49.49
68859;BME280;55864;49.238;8.092;2023-07-20T01:42:03;99189.09;;;21.00;48.57
68859;BME280;55864;49.238;8.092;2023-07-20T01:44:04;99187.22;;;21.07;48.71
68859;BME280;55864;49.238;8.092;2023-07-20T01:46:05;99193.22;;;21.02;48.33
68859;BME280;55864;49.238;8.092;2023-07-20T01:48:07;99193.41;;;21.07;48.48
68859;BME280;55864;49.238;8.092;2023-07-20T01:50:09;99192.41;;;21.02;49.40
68859;BME280;55864;49.238;8.092;2023-07-20T01:52:10;99189.19;;;21.18;48.79
68859;BME280;55864;49.238;8.092;2023-07-20T01:54:10;99187.69;;;21.28;48.27
68859;BME280;55864;49.238;8.092;2023-07-20T01:56:12;99189.75;;;21.02;48.45
68859;BME280;55864;49.238;8.092;2023-07-20T01:58:12;99189.25;;;20.74;49.14
68859;BME280;55864;49.238;8.092;2023-07-20T02:00:13;99184.09;;;20.79;49.60
68859;BME280;55864;49.238;8.092;2023-07-20T02:02:18;99191.53;;;20.70;50.09
68859;BME280;55864;49.238;8.092;2023-07-20T02:04:21;99195.44;;;20.68;49.79
68859;BME280;55864;49.238;8.092;2023-07-20T02:06:21;99186.88;;;20.59;50.77
68859;BME280;55864;49.238;8.092;2023-07-20T02:08:23;99186.91;;;20.52;50.40
68859;BME280;55864;49.238;8.092;2023-07-20T02:10:23;99187.47;;;20.61;50.68
68859;BME280;55864;49.238;8.092;2023-07-20T02:12:24;99191.19;;;20.53;50.82
68859;BME280;55864;49.238;8.092;2023-07-20T02:14:24;99181.16;;;20.49;51.00
68859;BME280;55864;49.238;8.092;2023-07-20T02:16:25;99193.28;;;20.45;51.25
68859;BME280;55864;49.238;8.092;2023-07-20T02:18:26;99184.84;;;20.48;51.07
68859;BME280;55864;49.238;8.092;2023-07-20T02:20:27;99181.78;;;20.44;51.57
68859;BME280;55864;49.238;8.092;2023-07-20T02:22:28;99186.97;;;20.33;51.08
68859;BME280;55864;49.238;8.092;2023-07-20T02:24:28;99184.13;;;20.28;51.91
68859;BME280;55864;49.238;8.092;2023-07-20T02:26:29;99183.53;;;20.13;52.39
68859;BME280;55864;49.238;8.092;2023-07-20T02:28:30;99186.84;;;19.95;52.40
68859;BME280;55864;49.238;8.092;2023-07-20T02:30:30;99179.06;;;19.94;52.34
68859;BME280;55864;49.238;8.092;2023-07-20T02:32:31;99186.63;;;20.10;52.12
68859;BME280;55864;49.238;8.092;2023-07-20T02:34:31;99181.50;;;20.02;52.56
68859;BME280;55864;49.238;8.092;2023-07-20T02:36:34;99185.63;;;19.91;52.67
68859;BME280;55864;49.238;8.092;2023-07-20T02:38:34;99183.22;;;19.70;53.13
68859;BME280;55864;49.238;8.092;2023-07-20T02:40:35;99185.69;;;19.45;53.59
68859;BME280;55864;49.238;8.092;2023-07-20T02:42:35;99187.31;;;19.46;53.85
68859;BME280;55864;49.238;8.092;2023-07-20T02:44:36;99180.78;;;19.36;54.29
68859;BME280;55864;49.238;8.092;2023-07-20T02:46:38;99198.34;;;19.24;55.21
68859;BME280;55864;49.238;8.092;2023-07-20T02:48:38;99195.53;;;19.45;54.93
68859;BME280;55864;49.238;8.092;2023-07-20T02:50:39;99194.09;;;19.42;55.38
68859;BME280;55864;49.238;8.092;2023-07-20T02:52:41;99194.66;;;19.05;55.33
68859;BME280;55864;49.238;8.092;2023-07-20T02:54:41;99192.44;;;19.28;54.60
68859;BME280;55864;49.238;8.092;2023-07-20T02:56:42;99199.59;;;19.34;55.16
68859;BME280;55864;49.238;8.092;2023-07-20T02:58:42;99190.00;;;19.33;55.07
68859;BME280;55864;49.238;8.092;2023-07-20T03:00:43;99196.09;;;19.14;55.27
68859;BME280;55864;49.238;8.092;2023-07-20T03:02:44;99188.50;;;19.31;54.55
68859;BME280;55864;49.238;8.092;2023-07-20T03:04:44;99190.97;;;19.26;55.09
68859;BME280;55864;49.238;8.092;2023-07-20T03:06:45;99191.81;;;19.46;54.80
68859;BME280;55864;49.238;8.092;2023-07-20T03:08:46;99187.13;;;19.48;54.84
68859;BME280;55864;49.238;8.092;2023-07-20T03:10:47;99189.78;;;19.48;54.59
68859;BME280;55864;49.238;8.092;2023-07-20T03:12:48;99186.09;;;19.55;54.44
68859;BME280;55864;49.238;8.092;2023-07-20T03:14:48;99192.03;;;19.44;54.35
68859;BME280;55864;49.238;8.092;2023-07-20T03:16:49;99200.44;;;19.35;54.70
68859;BME280;55864;49.238;8.092;2023-07-20T03:18:50;99199.97;;;19.05;55.13
68859;BME280;55864;49.238;8.092;2023-07-20T03:20:50;99196.06;;;19.01;55.63
68859;BME280;55864;49.238;8.092;2023-07-20T03:22:51;99196.28;;;19.06;55.39
68859;BME280;55864;49.238;8.092;2023-07-20T03:24:53;99203.22;;;19.01;55.86
68859;BME280;55864;49.238;8.092;2023-07-20T03:26:54;99200.38;;;19.02;55.83
68859;BME280;55864;49.238;8.092;2023-07-20T03:28:55;99207.66;;;18.74;56.43
68859;BME280;55864;49.238;8.092;2023-07-20T03:30:56;99206.06;;;18.86;56.17
68859;BME280;55864;49.238;8.092;2023-07-20T03:32:57;99207.00;;;18.52;57.04
68859;BME280;55864;49.238;8.092;2023-07-20T03:34:57;99215.03;;;18.65;56.93
68859;BME280;55864;49.238;8.092;2023-07-20T03:36:58;99216.69;;;18.73;56.99
68859;BME280;55864;49.238;8.092;2023-07-20T03:38:58;99213.59;;;18.69;56.65
68859;BME280;55864;49.238;8.092;2023-07-20T03:41:00;99215.91;;;18.79;56.62
68859;BME280;55864;49.238;8.092;2023-07-20T03:43:01;99215.25;;;18.70;56.85
68859;BME280;55864;49.238;8.092;2023-07-20T03:45:02;99215.66;;;18.67;56.96
68859;BME280;55864;49.238;8.092;2023-07-20T03:47:03;99221.22;;;18.86;56.47
68859;BME280;55864;49.238;8.092;2023-07-20T03:49:03;99219.97;;;18.75;56.57
68859;BME280;55864;49.238;8.092;2023-07-20T03:51:04;99223.13;;;19.05;56.37
68859;BME280;55864;49.238;8.092;2023-07-20T03:53:04;99222.94;;;19.26;55.73
68859;BME280;55864;49.238;8.092;2023-07-20T03:55:06;99219.84;;;19.16;55.80
68859;BME280;55864;49.238;8.092;2023-07-20T03:57:08;99218.63;;;19.05;56.04
68859;BME280;55864;49.238;8.092;2023-07-20T03:59:08;99220.25;;;19.06;55.73
68859;BME280;55864;49.238;8.092;2023-07-20T04:01:09;99213.50;;;19.10;55.97
68859;BME280;55864;49.238;8.092;2023-07-20T04:03:09;99229.03;;;19.00;56.32
68859;BME280;55864;49.238;8.092;2023-07-20T04:05:10;99222.50;;;19.03;56.33
68859;BME280;55864;49.238;8.092;2023-07-20T04:07:11;99217.56;;;19.06;56.26
68859;BME280;55864;49.238;8.092;2023-07-20T04:09:12;99215.50;;;18.95;56.72
68859;BME280;55864;49.238;8.092;2023-07-20T04:11:13;99220.66;;;19.03;56.79
68859;BME280;55864;49.238;8.092;2023-07-20T04:13:15;99225.16;;;19.03;57.16
68859;BME280;55864;49.238;8.092;2023-07-20T04:15:15;99216.97;;;18.98;56.79
68859;BME280;55864;49.238;8.092;2023-07-20T04:17:17;99221.22;;;18.86;57.17
68859;BME280;55864;49.238;8.092;2023-07-20T04:19:18;99219.59;;;18.91;57.13
68859;BME280;55864;49.238;8.092;2023-07-20T04:21:19;99218.19;;;18.95;57.19
68859;BME280;55864;49.238;8.092;2023-07-20T04:23:19;99224.09;;;18.84;56.90
68859;BME280;55864;49.238;8.092;2023-07-20T04:25:20;99219.78;;;18.83;57.74
68859;BME280;55864;49.238;8.092;2023-07-20T04:27:20;99220.22;;;18.87;57.33
68859;BME280;55864;49.238;8.092;2023-07-20T04:29:22;99223.06;;;18.85;57.86
68859;BME280;55864;49.238;8.092;2023-07-20T04:31:23;99222.88;;;18.93;57.88
68859;BME280;55864;49.238;8.092;2023-07-20T04:33:24;99231.44;;;18.82;57.57
68859;BME280;55864;49.238;8.092;2023-07-20T04:35:49;99226.56;;;18.99;57.45
68859;BME280;55864;49.238;8.092;2023-07-20T04:37:52;99224.97;;;19.11;56.62
68859;BME280;55864;49.238;8.092;2023-07-20T04:39:55;99224.56;;;19.14;56.56
68859;BME280;55864;49.238;8.092;2023-07-20T04:41:55;99221.28;;;19.05;56.74
68859;BME280;55864;49.238;8.092;2023-07-20T04:43:56;99220.88;;;19.15;56.78
68859;BME280;55864;49.238;8.092;2023-07-20T04:46:03;99220.06;;;19.14;57.05
68859;BME280;55864;49.238;8.092;2023-07-20T04:48:12;99217.56;;;19.06;57.30
68859;BME280;55864;49.238;8.092;2023-07-20T04:50:15;99220.00;;;18.95;57.65
68859;BME280;55864;49.238;8.092;2023-07-20T04:52:15;99221.09;;;19.13;57.65
68859;BME280;55864;49.238;8.092;2023-07-20T04:54:16;99221.72;;;19.28;56.96
68859;BME280;55864;49.238;8.092;2023-07-20T04:56:16;99220.28;;;19.26;56.78
68859;BME280;55864;49.238;8.092;2023-07-20T04:58:17;99227.69;;;19.30;56.72
68859;BME280;55864;49.238;8.092;2023-07-20T05:00:19;99223.31;;;19.03;57.31
68859;BME280;55864;49.238;8.092;2023-07-20T05:02:21;99221.47;;;19.10;57.35
68859;BME280;55864;49.238;8.092;2023-07-20T05:04:21;99218.44;;;19.20;57.11
68859;BME280;55864;49.238;8.092;2023-07-20T05:06:22;99224.88;;;18.78;58.30
68859;BME280;55864;49.238;8.092;2023-07-20T05:08:22;99230.66;;;18.95;58.22
68859;BME280;55864;49.238;8.092;2023-07-20T05:10:23;99225.16;;;18.96;58.21
68859;BME280;55864;49.238;8.092;2023-07-20T05:12:24;99214.13;;;19.19;56.89
68859;BME280;55864;49.238;8.092;2023-07-20T05:14:25;99218.75;;;18.84;57.96
68859;BME280;55864;49.238;8.092;2023-07-20T05:16:26;99219.63;;;19.04;57.66
68859;BME280;55864;49.238;8.092;2023-07-20T05:18:29;99220.22;;;18.87;57.86
68859;BME280;55864;49.238;8.092;2023-07-20T05:20:30;99220.66;;;19.23;56.94
68859;BME280;55864;49.238;8.092;2023-07-20T05:22:30;99222.31;;;19.11;56.83
68859;BME280;55864;49.238;8.092;2023-07-20T05:24:31;99226.84;;;19.30;56.49
68859;BME280;55864;49.238;8.092;2023-07-20T05:26:31;99229.91;;;19.20;56.64
68859;BME280;55864;49.238;8.092;2023-07-20T05:28:32;99227.03;;;19.22;56.44
68859;BME280;55864;49.238;8.092;2023-07-20T05:30:33;99227.28;;;19.33;56.06
68859;BME280;55864;49.238;8.092;2023-07-20T05:32:33;99225.16;;;19.16;56.85
68859;BME280;55864;49.238;8.092;2023-07-20T05:34:35;99219.25;;;19.27;56.77
68859;BME280;55864;49.238;8.092;2023-07-20T05:36:36;99232.81;;;19.38;56.14
68859;BME280;55864;49.238;8.092;2023-07-20T05:38:36;99225.81;;;19.31;56.53
68859;BME280;55864;49.238;8.092;2023-07-20T05:40:37;99223.59;;;19.34;56.58
68859;BME280;55864;49.238;8.092;2023-07-20T05:42:38;99226.00;;;19.29;56.42
68859;BME280;55864;49.238;8.092;2023-07-20T05:44:39;99229.88;;;19.07;56.70
68859;BME280;55864;49.238;8.092;2023-07-20T05:46:40;99225.25;;;19.35;56.40
68859;BME280;55864;49.238;8.092;2023-07-20T05:48:40;99228.03;;;19.14;57.23
68859;BME280;55864;49.238;8.092;2023-07-20T05:50:43;99228.25;;;19.19;56.91
68859;BME280;55864;49.238;8.092;2023-07-20T05:52:44;99232.97;;;18.50;58.77
68859;BME280;55864;49.238;8.092;2023-07-20T05:54:44;99232.31;;;18.96;57.87
68859;BME280;55864;49.238;8.092;2023-07-20T05:56:45;99233.19;;;19.29;57.09
68859;BME280;55864;49.238;8.092;2023-07-20T05:58:46;99224.22;;;19.49;56.41
68859;BME280;55864;49.238;8.092;2023-07-20T06:00:47;99222.97;;;19.65;55.88
68859;BME280;55864;49.238;8.092;2023-07-20T06:02:48;99234.47;;;19.39;56.77
68859;BME280;55864;49.238;8.092;2023-07-20T06:04:49;99229.53;;;19.49;56.09
68859;BME280;55864;49.238;8.092;2023-07-20T06:06:50;99229.75;;;19.74;55.76
68859;BME280;55864;49.238;8.092;2023-07-20T06:08:51;99231.38;;;19.82;55.35
68859;BME280;55864;49.238;8.092;2023-07-20T06:10:57;99238.16;;;19.51;56.32
68859;BME280;55864;49.238;8.092;2023-07-20T06:12:58;99240.19;;;19.49;56.99
68859;BME280;55864;49.238;8.092;2023-07-20T06:15:01;99237.13;;;19.52;56.57
68859;BME280;55864;49.238;8.092;2023-07-20T06:17:02;99242.25;;;19.41;56.65
68859;BME280;55864;49.238;8.092;2023-07-20T06:19:03;99238.59;;;19.68;56.56
68859;BME280;55864;49.238;8.092;2023-07-20T06:21:04;99247.78;;;19.59;56.71
68859;BME280;55864;49.238;8.092;2023-07-20T06:23:06;99246.72;;;19.27;57.38
68859;BME280;55864;49.238;8.092;2023-07-20T06:25:08;99238.97;;;19.72;56.55
68859;BME280;55864;49.238;8.092;2023-07-20T06:27:09;99242.69;;;19.38;57.35
68859;BME280;55864;49.238;8.092;2023-07-20T06:29:09;99240.81;;;19.58;56.78
68859;BME280;55864;49.238;8.092;2023-07-20T06:31:10;99244.94;;;19.60;56.66
68859;BME280;55864;49.238;8.092;2023-07-20T06:33:10;99243.50;;;19.58;57.33
68859;BME280;55864;49.238;8.092;2023-07-20T06:35:11;99241.22;;;19.75;56.64
68859;BME280;55864;49.238;8.092;2023-07-20T06:37:11;99243.06;;;19.81;56.64
68859;BME280;55864;49.238;8.092;2023-07-20T06:39:13;99238.31;;;20.09;56.53
68859;BME280;55864;49.238;8.092;2023-07-20T06:41:14;99244.25;;;20.17;56.18
68859;BME280;55864;49.238;8.092;2023-07-20T06:43:15;99234.03;;;20.08;56.20
68859;BME280;55864;49.238;8.092;2023-07-20T06:45:16;99238.94;;;20.11;55.89
68859;BME280;55864;49.238;8.092;2023-07-20T06:47:16;99239.03;;;20.55;55.35
68859;BME280;55864;49.238;8.092;2023-07-20T06:49:24;99240.28;;;20.46;55.37
68859;BME280;55864;49.238;8.092;2023-07-20T06:51:25;99246.41;;;20.59;54.67
68859;BME280;55864;49.238;8.092;2023-07-20T06:53:25;99245.44;;;20.41;55.04
68859;BME280;55864;49.238;8.092;2023-07-20T06:55:27;99243.44;;;20.30;55.52
68859;BME280;55864;49.238;8.092;2023-07-20T06:57:28;99244.38;;;20.55;54.80
68859;BME280;55864;49.238;8.092;2023-07-20T06:59:28;99246.78;;;20.63;54.30
68859;BME280;55864;49.238;8.092;2023-07-20T07:01:29;99243.81;;;20.84;53.99
68859;BME280;55864;49.238;8.092;2023-07-20T07:03:29;99241.56;;;20.43;53.80
68859;BME280;55864;49.238;8.092;2023-07-20T07:05:30;99239.94;;;20.29;54.57
68859;BME280;55864;49.238;8.092;2023-07-20T07:07:31;99234.81;;;20.08;54.60
68859;BME280;55864;49.238;8.092;2023-07-20T07:09:31;99245.09;;;20.24;55.71
68859;BME280;55864;49.238;8.092;2023-07-20T07:11:33;99241.47;;;20.63;54.36
68859;BME280;55864;49.238;8.092;2023-07-20T07:13:34;99242.59;;;20.80;53.63
68859;BME280;55864;49.238;8.092;2023-07-20T07:17:35;99245.09;;;20.82;53.64
68859;BME280;55864;49.238;8.092;2023-07-20T07:19:35;99242.06;;;20.72;53.48
68859;BME280;55864;49.238;8.092;2023-07-20T07:21:36;99242.88;;;20.66;53.73
68859;BME280;55864;49.238;8.092;2023-07-20T07:23:37;99244.03;;;20.83;53.29
68859;BME280;55864;49.238;8.092;2023-07-20T07:25:38;99240.00;;;20.67;53.40
68859;BME280;55864;49.238;8.092;2023-07-20T07:27:40;99247.09;;;21.30;52.14
68859;BME280;55864;49.238;8.092;2023-07-20T07:29:41;99244.97;;;21.39;50.87
68859;BME280;55864;49.238;8.092;2023-07-20T07:31:41;99249.66;;;21.43;51.02
68859;BME280;55864;49.238;8.092;2023-07-20T07:33:42;99252.47;;;21.24;49.27
68859;BME280;55864;49.238;8.092;2023-07-20T07:35:42;99251.03;;;21.52;49.84
68859;BME280;55864;49.238;8.092;2023-07-20T07:37:43;99249.59;;;21.81;48.25
68859;BME280;55864;49.238;8.092;2023-07-20T07:39:43;99244.63;;;21.85;47.67
68859;BME280;55864;49.238;8.092;2023-07-20T07:41:44;99245.00;;;21.88;48.12
68859;BME280;55864;49.238;8.092;2023-07-20T07:43:46;99248.94;;;22.10;47.50
68859;BME280;55864;49.238;8.092;2023-07-20T07:45:46;99240.81;;;21.99;47.49
68859;BME280;55864;49.238;8.092;2023-07-20T07:47:47;99242.34;;;21.88;46.86
68859;BME280;55864;49.238;8.092;2023-07-20T07:49:48;99247.22;;;22.16;46.59
68859;BME280;55864;49.238;8.092;2023-07-20T07:51:48;99254.19;;;22.17;46.46
68859;BME280;55864;49.238;8.092;2023-07-20T07:53:49;99253.13;;;22.00;46.39
68859;BME280;55864;49.238;8.092;2023-07-20T07:55:49;99252.78;;;22.14;45.48
68859;BME280;55864;49.238;8.092;2023-07-20T07:57:50;99263.38;;;22.27;45.78
68859;BME280;55864;49.238;8.092;2023-07-20T07:59:52;99261.63;;;22.15;45.67
68859;BME280;55864;49.238;8.092;2023-07-20T08:01:52;99255.44;;;22.14;45.91
68859;BME280;55864;49.238;8.092;2023-07-20T08:03:53;99271.16;;;22.29;46.36
68859;BME280;55864;49.238;8.092;2023-07-20T08:05:54;99262.81;;;22.37;46.21
68859;BME280;55864;49.238;8.092;2023-07-20T08:07:54;99257.03;;;22.40;44.89
68859;BME280;55864;49.238;8.092;2023-07-20T08:09:55;99256.47;;;22.56;44.76
68859;BME280;55864;49.238;8.092;2023-07-20T08:11:55;99252.47;;;22.65;44.82
68859;BME280;55864;49.238;8.092;2023-07-20T08:13:56;99250.81;;;22.82;44.68
68859;BME280;55864;49.238;8.092;2023-07-20T08:15:58;99254.03;;;23.02;43.50
68859;BME280;55864;49.238;8.092;2023-07-20T08:17:58;99251.28;;;23.39;42.59
68859;BME280;55864;49.238;8.092;2023-07-20T08:19:59;99249.00;;;23.77;42.43
68859;BME280;55864;49.238;8.092;2023-07-20T08:21:59;99249.63;;;24.02;41.96
68859;BME280;55864;49.238;8.092;2023-07-20T08:24:00;99249.97;;;24.17;41.60
68859;BME280;55864;49.238;8.092;2023-07-20T08:26:01;99254.16;;;24.36;41.15
68859;BME280;55864;49.238;8.092;2023-07-20T08:28:01;99254.63;;;24.45;40.50
68859;BME280;55864;49.238;8.092;2023-07-20T08:30:02;99249.09;;;25.02;39.75
68859;BME280;55864;49.238;8.092;2023-07-20T08:32:05;99249.16;;;25.47;39.39
68859;BME280;55864;49.238;8.092;2023-07-20T08:34:06;99246.16;;;25.32;39.13
68859;BME280;55864;49.238;8.092;2023-07-20T08:36:06;99248.63;;;24.77;39.94
68859;BME280;55864;49.238;8.092;2023-07-20T08:38:07;99249.81;;;24.58;39.97
68859;BME280;55864;49.238;8.092;2023-07-20T08:40:09;99250.91;;;24.85;39.51
68859;BME280;55864;49.238;8.092;2023-07-20T08:42:10;99252.72;;;24.57;40.30
68859;BME280;55864;49.238;8.092;2023-07-20T08:44:11;99255.28;;;25.31;39.42
68859;BME280;55864;49.238;8.092;2023-07-20T08:46:12;99248.63;;;25.05;39.37
68859;BME280;55864;49.238;8.092;2023-07-20T08:48:15;99248.50;;;24.61;39.49
68859;BME280;55864;49.238;8.092;2023-07-20T08:50:17;99245.16;;;25.38;38.30
68859;BME280;55864;49.238;8.092;2023-07-20T08:52:18;99249.78;;;25.71;38.55
68859;BME280;55864;49.238;8.092;2023-07-20T08:54:18;99249.75;;;25.38;38.45
68859;BME280;55864;49.238;8.092;2023-07-20T08:56:19;99253.81;;;24.95;39.62
68859;BME280;55864;49.238;8.092;2023-07-20T08:58:20;99249.22;;;25.52;39.11
68859;BME280;55864;49.238;8.092;2023-07-20T09:00:21;99246.53;;;26.02;38.10
68859;BME280;55864;49.238;8.092;2023-07-20T09:02:25;99245.44;;;26.03;37.35
68859;BME280;55864;49.238;8.092;2023-07-20T09:04:28;99245.81;;;25.57;37.96
68859;BME280;55864;49.238;8.092;2023-07-20T09:06:29;99250.47;;;26.33;37.00
68859;BME280;55864;49.238;8.092;2023-07-20T09:08:29;99246.13;;;26.10;37.00
68859;BME280;55864;49.238;8.092;2023-07-20T09:10:30;99239.66;;;26.28;36.51
68859;BME280;55864;49.238;8.092;2023-07-20T09:12:31;99248.84;;;25.60;37.79
68859;BME280;55864;49.238;8.092;2023-07-20T09:14:31;99245.16;;;25.83;37.60
68859;BME280;55864;49.238;8.092;2023-07-20T09:16:32;99236.56;;;26.02;37.38
68859;BME280;55864;49.238;8.092;2023-07-20T09:18:33;99239.69;;;26.11;36.64
68859;BME280;55864;49.238;8.092;2023-07-20T09:20:36;99235.56;;;26.25;36.37
68859;BME280;55864;49.238;8.092;2023-07-20T09:22:37;99236.44;;;26.09;36.33
68859;BME280;55864;49.238;8.092;2023-07-20T09:24:39;99242.03;;;26.24;36.71
68859;BME280;55864;49.238;8.092;2023-07-20T09:26:42;99233.97;;;26.08;36.55
68859;BME280;55864;49.238;8.092;2023-07-20T09:28:47;99240.44;;;25.73;37.25
68859;BME280;55864;49.238;8.092;2023-07-20T09:30:48;99242.22;;;25.84;37.86
68859;BME280;55864;49.238;8.092;2023-07-20T09:32:49;99239.84;;;25.88;36.34
68859;BME280;55864;49.238;8.092;2023-07-20T09:34:51;99234.56;;;26.69;35.75
68859;BME280;55864;49.238;8.092;2023-07-20T09:36:53;99234.50;;;27.13;35.17
68859;BME280;55864;49.238;8.092;2023-07-20T09:38:54;99232.25;;;27.89;33.17
68859;BME280;55864;49.238;8.092;2023-07-20T09:40:54;99233.66;;;27.97;32.12
68859;BME280;55864;49.238;8.092;2023-07-20T09:42:55;99238.31;;;28.07;30.85
68859;BME280;55864;49.238;8.092;2023-07-20T09:44:56;99235.06;;;28.51;30.76
68859;BME280;55864;49.238;8.092;2023-07-20T09:46:56;99229.59;;;28.41;30.67
68859;BME280;55864;49.238;8.092;2023-07-20T09:48:57;99234.59;;;28.59;31.12
68859;BME280;55864;49.238;8.092;2023-07-20T09:50:57;99234.91;;;28.26;30.66
68859;BME280;55864;49.238;8.092;2023-07-20T09:53:00;99228.81;;;27.99;31.32
68859;BME280;55864;49.238;8.092;2023-07-20T09:55:01;99228.94;;;27.82;31.38
68859;BME280;55864;49.238;8.092;2023-07-20T09:57:03;99225.03;;;26.83;33.00
68859;BME280;55864;49.238;8.092;2023-07-20T09:59:07;99224.78;;;26.85;32.91
68859;BME280;55864;49.238;8.092;2023-07-20T10:01:08;99221.56;;;26.66;34.02
68859;BME280;55864;49.238;8.092;2023-07-20T10:03:10;99228.81;;;26.44;35.35
68859;BME280;55864;49.238;8.092;2023-07-20T10:05:13;99229.53;;;26.18;35.03
68859;BME280;55864;49.238;8.092;2023-07-20T10:07:14;99225.66;;;26.09;36.21
68859;BME280;55864;49.238;8.092;2023-07-20T10:09:18;99219.25;;;25.98;35.88
68859;BME280;55864;49.238;8.092;2023-07-20T10:11:21;99216.91;;;25.85;35.24
68859;BME280;55864;49.238;8.092;2023-07-20T10:13:27;99215.72;;;26.53;34.15
68859;BME280;55864;49.238;8.092;2023-07-20T10:15:30;99207.97;;;27.05;33.33
68859;BME280;55864;49.238;8.092;2023-07-20T10:17:31;99207.22;;;26.61;33.51
68859;BME280;55864;49.238;8.092;2023-07-20T10:19:35;99212.97;;;26.26;32.91
68859;BME280;55864;49.238;8.092;2023-07-20T10:21:42;99213.78;;;26.27;32.64
68859;BME280;55864;49.238;8.092;2023-07-20T10:23:44;99209.13;;;26.22;33.74
68859;BME280;55864;49.238;8.092;2023-07-20T10:25:47;99217.00;;;26.07;34.76
68859;BME280;55864;49.238;8.092;2023-07-20T10:27:48;99205.25;;;26.35;34.04
68859;BME280;55864;49.238;8.092;2023-07-20T10:29:48;99202.38;;;26.84;33.75
68859;BME280;55864;49.238;8.092;2023-07-20T10:31:51;99198.50;;;26.75;34.04
68859;BME280;55864;49.238;8.092;2023-07-20T10:33:52;99196.72;;;26.86;33.80
68859;BME280;55864;49.238;8.092;2023-07-20T10:35:54;99188.47;;;27.51;33.27
68859;BME280;55864;49.238;8.092;2023-07-20T10:38:00;99192.75;;;27.47;31.58
68859;BME280;55864;49.238;8.092;2023-07-20T10:40:23;99187.84;;;28.69;30.08
68859;BME280;55864;49.238;8.092;2023-07-20T10:42:25;99187.34;;;28.82;29.21
68859;BME280;55864;49.238;8.092;2023-07-20T10:44:33;99188.22;;;29.13;28.92
68859;BME280;55864;49.238;8.092;2023-07-20T10:46:44;99178.50;;;29.27;28.50